WetterOnline ( https://www.wetteronline.de )

Wetter aktuell Hinte

Aktuelles Wetter: Emden (5m)

6-stündlich | Neueste Meldungen
Ortszeit Temperatur Wetter
Di, 27.10. 1:00 9.0° C leicht bewölkt
Mo, 26.10. 19:00 9.8° C fast wolkenlos
Mo, 26.10. 13:00 10.6° C bedeckt
Mo, 26.10. 7:00 9.9° C wolkig
Mo, 26.10. 1:00 10.1° C wolkig
So, 25.10. 19:00 11.7° C bedeckt
So, 25.10. 13:00 12.6° C bewölkt
So, 25.10. 7:00 14.7° C bewölkt
Ortszeit Temperatur Wetter
Di, 27.10. 1:30 9.0° C wolkenlos
Di, 27.10. 1:20 9.0° C wolkenlos
Di, 27.10. 1:10 8.8° C leicht bewölkt
Di, 27.10. 1:00 9.0° C leicht bewölkt
Di, 27.10. 0:50 9.0° C leicht bewölkt
Di, 27.10. 0:40 9.1° C wolkenlos
Di, 27.10. 0:30 9.4° C fast wolkenlos
Di, 27.10. 0:00 9.6° C wolkig
Mo, 26.10. 23:30 9.5° C wolkig
Mo, 26.10. 23:00 9.5° C bewölkt
Mo, 26.10. 22:30 9.3° C wolkenlos
Mo, 26.10. 22:00 9.4° C wolkenlos
Ortszeit Relative Feuchte Sichtweite
Di, 27.10. 1:00 86% 45 km
Mo, 26.10. 19:00 81% 60 km
Mo, 26.10. 13:00 77% 55 km
Mo, 26.10. 7:00 92% 40 km
Mo, 26.10. 1:00 92% 45 km
So, 25.10. 19:00 89% >70 km
So, 25.10. 13:00 84% >70 km
So, 25.10. 7:00 77% 65 km
Ortszeit Relative Feuchte Sichtweite
Di, 27.10. 1:30 87% 40 km
Di, 27.10. 1:20 87% -
Di, 27.10. 1:10 88% -
Di, 27.10. 1:00 86% 45 km
Di, 27.10. 0:50 86% -
Di, 27.10. 0:40 86% -
Di, 27.10. 0:30 84% 50 km
Di, 27.10. 0:00 83% 45 km
Mo, 26.10. 23:30 83% 55 km
Mo, 26.10. 23:00 82% 55 km
Mo, 26.10. 22:30 83% 45 km
Mo, 26.10. 22:00 82% 60 km
Ortszeit Niederschlagsmenge Niederschlagsart
Di, 27.10. 1:00 0.0 l/m2 in 6 Std. -
Mo, 26.10. 19:00 0.0 l/m2 in 12 Std. -
Mo, 26.10. 13:00 0.0 l/m2 in 6 Std. -
Mo, 26.10. 7:00 0.1 l/m2 in 12 Std. Regen
Mo, 26.10. 1:00 0.0 l/m2 in 6 Std. -
So, 25.10. 19:00 2 l/m2 in 12 Std. Regen
So, 25.10. 13:00 2 l/m2 in 6 Std. Regen
So, 25.10. 7:00 0.1 l/m2 in 12 Std. Regen
Ortszeit Niederschlagsmenge Niederschlagsart
Di, 27.10. 1:30 0.0 l/m2 in 1 Std. -
Di, 27.10. 1:20 keine Meldung -
Di, 27.10. 1:10 keine Meldung -
Di, 27.10. 1:00 0.0 l/m2 in 1 Std. -
Di, 27.10. 0:50 keine Meldung -
Di, 27.10. 0:40 keine Meldung -
Di, 27.10. 0:30 0.0 l/m2 in 1 Std. -
Di, 27.10. 0:00 0.0 l/m2 in 1 Std. -
Mo, 26.10. 23:30 0.0 l/m2 in 1 Std. -
Mo, 26.10. 23:00 0.0 l/m2 in 1 Std. -
Mo, 26.10. 22:30 0.0 l/m2 in 1 Std. -
Mo, 26.10. 22:00 0.0 l/m2 in 1 Std. -
Ortszeit Stärke Spitze Richtung
km/h Bft. km/h Grad Sektor
Di, 27.10. 1:00 18 3 36 200° S
Mo, 26.10. 19:00 18 3 36 180° S
Mo, 26.10. 13:00 22 4 36 200° S
Mo, 26.10. 7:00 14 3 29 180° S
Mo, 26.10. 1:00 14 3 29 180° S
So, 25.10. 19:00 15 3 31 190° S
So, 25.10. 13:00 20 4 44 200° S
So, 25.10. 7:00 24 4 50 190° S
Ortszeit Stärke Spitze Richtung
km/h Bft. km/h Grad Sektor
Di, 27.10. 1:30 18 3 32 200° S
Di, 27.10. 1:20 18 3 - 200° S
Di, 27.10. 1:10 18 3 - 200° S
Di, 27.10. 1:00 18 3 36 200° S
Di, 27.10. 0:50 18 3 - 200° S
Di, 27.10. 0:40 18 3 - 200° S
Di, 27.10. 0:30 18 3 32 200° S
Di, 27.10. 0:00 15 3 37 200° S
Mo, 26.10. 23:30 20 4 37 200° S
Mo, 26.10. 23:00 20 4 37 200° S
Mo, 26.10. 22:30 18 3 32 190° S
Mo, 26.10. 22:00 17 3 33 180° S
Ortszeit Untergrenze Bedeckung Gattung
total tief tief mittel hoch
Di, 27.10. 1:00 2100 m 3/8 3/8 - - -
Mo, 26.10. 19:00 2100 m 1/8 1/8 - - -
Mo, 26.10. 13:00 570 m 8/8 8/8 - - -
Mo, 26.10. 7:00 270 m 8/8 2/8 - - -
Mo, 26.10. 1:00 1500 m 8/8 1/8 - - -
So, 25.10. 19:00 5400 m 8/8 8/8 - - -
So, 25.10. 13:00 510 m 8/8 7/8 - - -
So, 25.10. 7:00 900 m 8/8 7/8 - - -
Ortszeit Bedeckungsgrad in Achtel und Wolkenuntergrenze
Di, 27.10. 1:30 keine Wolken
Di, 27.10. 1:20 keine Wolken
Di, 27.10. 1:10 1(2100m) 2(2700m)
Di, 27.10. 1:00 2(2100m) 3(2700m)
Di, 27.10. 0:50 2(2100m) 3(2700m)
Di, 27.10. 0:40 keine Wolken
Di, 27.10. 0:30 1(930m)
Di, 27.10. 0:00 5(960m) 6(1800m)
Mo, 26.10. 23:30 2(990m) 5(2100m) 4(2100m)
Mo, 26.10. 23:00 5(1020m) 7(1440m)
Mo, 26.10. 22:30 1(990m)
Mo, 26.10. 22:00 keine Wolken
Ortszeit Luftdruck NN (hPa) Tendenz (hPa in 3 Std.)
Di, 27.10. 1:00 1000 + 0,1
Mo, 26.10. 19:00 999 - 0,1
Mo, 26.10. 13:00 1000 + 0,2
Mo, 26.10. 7:00 999 - 0,1
Mo, 26.10. 1:00 1000 0,0
So, 25.10. 19:00 1000 + 0,3
So, 25.10. 13:00 1001 + 0,3
So, 25.10. 7:00 999 - 1,0
Ortszeit Luftdruck NN (hPa) Tendenz (hPa in 3 Std.)
Di, 27.10. 1:30 1000 0,0
Di, 27.10. 1:20 1000 keine Meldung
Di, 27.10. 1:10 1000 keine Meldung
Di, 27.10. 1:00 1000 + 0,1
Di, 27.10. 0:50 1000 keine Meldung
Di, 27.10. 0:40 1000 keine Meldung
Di, 27.10. 0:30 1000 0,0
Di, 27.10. 0:00 1000 0,0
Mo, 26.10. 23:30 1000 + 0,2
Mo, 26.10. 23:00 1000 + 0,4
Mo, 26.10. 22:30 1000 + 0,6
Mo, 26.10. 22:00 1000 + 0,5
Ortszeit Schneehöhe (cm)
Di, 27.10. 1:00 0
Mo, 26.10. 19:00 0
Mo, 26.10. 13:00 0
Mo, 26.10. 7:00 0
Mo, 26.10. 1:00 0
So, 25.10. 19:00 0
So, 25.10. 13:00 0
So, 25.10. 7:00 0
Ortszeit Schneehöhe (cm)
Di, 27.10. 1:30 0
Di, 27.10. 1:20 0
Di, 27.10. 1:10 0
Di, 27.10. 1:00 0
Di, 27.10. 0:50 0
Di, 27.10. 0:40 0
Di, 27.10. 0:30 0
Di, 27.10. 0:00 0
Mo, 26.10. 23:30 0
Mo, 26.10. 23:00 0
Mo, 26.10. 22:30 0
Mo, 26.10. 22:00 0
Link zu dieser Seite / Seite empfehlen

Das Wetter in ...